Time;durP1;ratioP1;P1;durP2;ratioP2;P2;SDS_P1;SDS_P2;PMS_P1;PMS_P2;Temp;Humidity;BMP_temperature;BMP_pressure;BME280_temperature;BME280_humidity;BME280_pressure;Samples;Min_cycle;Max_cycle;Signal;HPM_P1;HPM_P2
2023/07/27 00:00:50;;;;;;;;;3.67;3.67;;;;;;;;4827377;29;9157;-94
2023/07/27 00:03:15;;;;;;;;;4.67;4.67;;;;;;;;4826957;29;8851;-95
2023/07/27 00:05:41;;;;;;;;;6.33;6.33;;;;;;;;4810883;29;8855;-94
2023/07/27 00:08:06;;;;;;;;;4.33;4.33;;;;;;;;4827154;29;8835;-94
2023/07/27 00:10:31;;;;;;;;;5.67;5.67;;;;;;;;4817624;29;8845;-95
2023/07/27 00:12:56;;;;;;;;;4.67;4.67;;;;;;;;4828859;29;9564;-93
2023/07/27 00:15:22;;;;;;;;;6.00;6.00;;;;;;;;4828927;29;8891;-94
2023/07/27 00:17:47;;;;;;;;;4.00;4.00;;;;;;;;4844346;29;8938;-94
2023/07/27 00:20:12;;;;;;;;;6.67;6.67;;;;;;;;4827014;29;8827;-94
2023/07/27 00:22:38;;;;;;;;;5.33;5.33;;;;;;;;4810457;29;8871;-94
2023/07/27 00:25:04;;;;;;;;;5.67;5.67;;;;;;;;4826927;29;8878;-94
2023/07/27 00:27:29;;;;;;;;;5.25;5.25;;;;;;;;4826966;29;8819;-92
2023/07/27 00:29:55;;;;;;;;;4.33;4.33;;;;;;;;4826980;29;8871;-92
2023/07/27 00:32:20;;;;;;;;;4.33;4.33;;;;;;;;4826685;29;8862;-92
2023/07/27 00:34:45;;;;;;;;;4.67;4.67;;;;;;;;4826920;29;8864;-93
2023/07/27 00:37:12;;;;;;;;;6.00;6.00;;;;;;;;4815391;29;8851;-92
2023/07/27 00:39:37;;;;;;;;;4.50;4.50;;;;;;;;4832773;29;8796;-92
2023/07/27 00:42:03;;;;;;;;;6.00;6.00;;;;;;;;4833027;29;8847;-92
2023/07/27 00:44:28;;;;;;;;;6.67;6.00;;;;;;;;4833065;29;8850;-92
2023/07/27 00:46:53;;;;;;;;;4.33;4.33;;;;;;;;4816471;29;8873;-93
2023/07/27 00:49:19;;;;;;;;;6.33;6.33;;;;;;;;4832442;29;8839;-93
2023/07/27 00:51:44;;;;;;;;;5.33;5.33;;;;;;;;4833013;29;9005;-93
2023/07/27 00:54:10;;;;;;;;;5.33;5.33;;;;;;;;4832640;29;8823;-93
2023/07/27 00:56:36;;;;;;;;;5.00;5.00;;;;;;;;4817297;29;8946;-93
2023/07/27 00:59:02;;;;;;;;;4.50;4.50;;;;;;;;4822220;29;8825;-93
2023/07/27 01:01:28;;;;;;;;;3.33;2.67;;;;;;;;4822699;29;8853;-92
2023/07/27 01:03:54;;;;;;;;;3.00;3.00;;;;;;;;4832166;29;8850;-92
2023/07/27 01:06:19;;;;;;;;;1.67;1.67;;;;;;;;4816162;29;8839;-92
2023/07/27 01:08:44;;;;;;;;;1.67;1.67;;;;;;;;4837662;29;8947;-92
2023/07/27 01:11:10;;;;;;;;;2.67;2.67;;;;;;;;4850993;29;8836;-92
2023/07/27 01:13:47;;;;;;;;;3.00;3.00;;;;;;;;4851087;29;8837;-92
2023/07/27 01:16:18;;;;;;;;;3.25;3.25;;;;;;;;4849863;29;8841;-92
2023/07/27 01:18:44;;;;;;;;;2.75;2.75;;;;;;;;4839933;29;9818;-93
2023/07/27 01:21:12;;;;;;;;;3.67;3.67;;;;;;;;4833905;29;8898;-93
2023/07/27 01:23:45;;;;;;;;;3.50;3.50;;;;;;;;4842548;29;8838;-92
2023/07/27 01:26:16;;;;;;;;;3.00;3.00;;;;;;;;4832411;29;8870;-92
2023/07/27 01:28:56;;;;;;;;;4.75;4.75;;;;;;;;4832301;29;8919;-92
2023/07/27 01:31:23;;;;;;;;;0.00;0.00;;;;;;;;4832419;29;8815;-92
2023/07/27 01:33:59;;;;;;;;;3.25;3.25;;;;;;;;4815570;29;9797;-92
2023/07/27 01:36:27;;;;;;;;;3.75;3.75;;;;;;;;4839121;29;8821;-92
2023/07/27 01:38:53;;;;;;;;;3.75;3.75;;;;;;;;4850543;29;8825;-92
2023/07/27 01:41:19;;;;;;;;;2.67;2.67;;;;;;;;4850632;29;8877;-92
2023/07/27 01:43:44;;;;;;;;;3.00;3.00;;;;;;;;4833864;29;8949;-92
2023/07/27 01:46:10;;;;;;;;;3.33;3.33;;;;;;;;4833997;29;8991;-93
2023/07/27 01:48:37;;;;;;;;;3.75;3.75;;;;;;;;4846677;29;8809;-93
2023/07/27 01:51:03;;;;;;;;;3.50;3.50;;;;;;;;4831021;29;8825;-93
2023/07/27 01:53:29;;;;;;;;;4.00;4.00;;;;;;;;4847492;29;8821;-93
2023/07/27 01:55:55;;;;;;;;;4.25;3.00;;;;;;;;4847396;29;8869;-93
2023/07/27 01:58:21;;;;;;;;;3.67;3.67;;;;;;;;4818409;29;9701;-93
2023/07/27 02:00:47;;;;;;;;;2.67;2.67;;;;;;;;4839706;29;8827;-94
2023/07/27 02:03:12;;;;;;;;;4.00;4.00;;;;;;;;4840872;29;11484;-93
2023/07/27 02:05:38;;;;;;;;;6.00;6.00;;;;;;;;4819936;29;9580;-92
2023/07/27 02:08:03;;;;;;;;;4.67;4.67;;;;;;;;4834825;29;8843;-92
2023/07/27 02:10:30;;;;;;;;;4.00;4.00;;;;;;;;4830130;29;8840;-92
2023/07/27 02:13:09;;;;;;;;;6.75;5.50;;;;;;;;4846315;29;8847;-92
2023/07/27 02:15:39;;;;;;;;;4.25;4.25;;;;;;;;4837486;29;8809;-93
2023/07/27 02:18:14;;;;;;;;;5.50;5.50;;;;;;;;4842014;29;8820;-93
2023/07/27 02:20:40;;;;;;;;;6.50;6.50;;;;;;;;4820360;29;8859;-93
2023/07/27 02:23:06;;;;;;;;;3.75;3.75;;;;;;;;4824307;29;8843;-93
2023/07/27 02:25:31;;;;;;;;;5.33;5.33;;;;;;;;4838718;29;8825;-93
2023/07/27 02:27:57;;;;;;;;;6.33;6.33;;;;;;;;4830640;29;8823;-93
2023/07/27 02:30:22;;;;;;;;;5.00;5.00;;;;;;;;4812180;29;8873;-93
2023/07/27 02:32:47;;;;;;;;;6.67;6.67;;;;;;;;4828348;29;8831;-93
2023/07/27 02:35:13;;;;;;;;;5.67;5.67;;;;;;;;4828492;29;9235;-93
2023/07/27 02:37:38;;;;;;;;;7.00;7.00;;;;;;;;4828480;29;8838;-92
2023/07/27 02:40:03;;;;;;;;;5.67;5.67;;;;;;;;4811912;29;8899;-92
2023/07/27 02:42:29;;;;;;;;;7.67;7.67;;;;;;;;4812025;29;8845;-92
2023/07/27 02:44:54;;;;;;;;;4.00;4.00;;;;;;;;4811914;29;8989;-92
2023/07/27 02:47:19;;;;;;;;;7.00;7.00;;;;;;;;4811617;29;8969;-92
2023/07/27 02:49:44;;;;;;;;;6.00;6.00;;;;;;;;4828321;29;8879;-92
2023/07/27 02:52:10;;;;;;;;;3.33;3.33;;;;;;;;4811773;29;8865;-92
2023/07/27 02:54:35;;;;;;;;;4.67;4.67;;;;;;;;4828318;29;8824;-92
2023/07/27 02:57:00;;;;;;;;;8.00;7.00;;;;;;;;4829158;29;9824;-92
2023/07/27 02:59:25;;;;;;;;;6.00;6.00;;;;;;;;4811470;29;8867;-92
2023/07/27 03:01:51;;;;;;;;;7.00;7.00;;;;;;;;4828084;29;8932;-92
2023/07/27 03:04:16;;;;;;;;;5.67;5.67;;;;;;;;4827930;29;8929;-92
2023/07/27 03:06:43;;;;;;;;;7.00;7.00;;;;;;;;4828015;29;9544;-92
2023/07/27 03:09:08;;;;;;;;;8.00;8.00;;;;;;;;4836981;29;8963;-93
2023/07/27 03:11:35;;;;;;;;;6.33;6.33;;;;;;;;4845796;29;8952;-92
2023/07/27 03:14:00;;;;;;;;;6.25;6.25;;;;;;;;4829720;29;8858;-92
2023/07/27 03:16:26;;;;;;;;;6.67;6.67;;;;;;;;4829715;29;8832;-92
2023/07/27 03:18:51;;;;;;;;;6.67;6.67;;;;;;;;4837332;29;8823;-92
2023/07/27 03:21:16;;;;;;;;;8.00;8.00;;;;;;;;4830095;29;8880;-92
2023/07/27 03:23:41;;;;;;;;;7.67;7.67;;;;;;;;4821035;29;8835;-92
2023/07/27 03:26:11;;;;;;;;;7.00;7.00;;;;;;;;4813860;29;8857;-92
2023/07/27 03:28:36;;;;;;;;;8.00;8.00;;;;;;;;4820458;29;8831;-92
2023/07/27 03:31:01;;;;;;;;;5.67;5.67;;;;;;;;4827695;29;9008;-92
2023/07/27 03:33:26;;;;;;;;;7.67;7.67;;;;;;;;4836460;29;8825;-92
2023/07/27 03:35:52;;;;;;;;;9.00;9.00;;;;;;;;4830856;29;8830;-92
2023/07/27 03:38:17;;;;;;;;;6.00;6.00;;;;;;;;4827803;29;8827;-92
2023/07/27 03:40:42;;;;;;;;;5.67;5.67;;;;;;;;4827254;29;8879;-91
2023/07/27 03:43:07;;;;;;;;;6.67;6.67;;;;;;;;4827720;29;8839;-91
2023/07/27 03:45:32;;;;;;;;;8.33;8.33;;;;;;;;4827457;29;8867;-92
2023/07/27 03:47:58;;;;;;;;;8.50;7.00;;;;;;;;4827378;29;8827;-92
2023/07/27 03:50:23;;;;;;;;;5.33;5.33;;;;;;;;4827357;29;8867;-92
2023/07/27 03:52:48;;;;;;;;;8.00;8.00;;;;;;;;4827706;29;8854;-92
2023/07/27 03:55:14;;;;;;;;;6.67;6.67;;;;;;;;4827244;29;8946;-92
2023/07/27 03:57:39;;;;;;;;;7.67;7.67;;;;;;;;4811673;29;8892;-92
2023/07/27 04:00:05;;;;;;;;;9.33;9.33;;;;;;;;4827200;29;8859;-92
2023/07/27 04:02:30;;;;;;;;;1.33;1.33;;;;;;;;4827231;29;8941;-92
2023/07/27 04:04:56;;;;;;;;;6.00;6.00;;;;;;;;4827150;29;8823;-92
2023/07/27 04:07:21;;;;;;;;;6.67;6.67;;;;;;;;4810917;29;8854;-92
2023/07/27 04:09:46;;;;;;;;;8.00;8.00;;;;;;;;4828310;29;8811;-92
2023/07/27 04:12:12;;;;;;;;;8.00;8.00;;;;;;;;4845007;29;8812;-92
2023/07/27 04:14:37;;;;;;;;;6.00;6.00;;;;;;;;4815593;29;8927;-93
2023/07/27 04:17:02;;;;;;;;;4.00;4.00;;;;;;;;4830017;29;8881;-92
2023/07/27 04:19:28;;;;;;;;;6.67;6.67;;;;;;;;4831928;29;8934;-93
2023/07/27 04:21:53;;;;;;;;;5.33;4.00;;;;;;;;4810579;29;8890;-93
2023/07/27 04:24:18;;;;;;;;;5.00;5.00;;;;;;;;4826696;29;8883;-93
2023/07/27 04:26:43;;;;;;;;;5.00;5.00;;;;;;;;4827231;29;8878;-93
2023/07/27 04:29:09;;;;;;;;;6.00;6.00;;;;;;;;4810386;29;8846;-93
2023/07/27 04:31:34;;;;;;;;;7.00;7.00;;;;;;;;4810562;29;9238;-93
2023/07/27 04:33:59;;;;;;;;;6.33;5.33;;;;;;;;4810141;29;8850;-93
2023/07/27 04:36:24;;;;;;;;;9.33;9.33;;;;;;;;4827009;29;8839;-93
2023/07/27 04:38:50;;;;;;;;;11.00;11.00;;;;;;;;4826742;29;8926;-93
2023/07/27 04:41:15;;;;;;;;;12.67;12.00;;;;;;;;4826876;29;8863;-93
2023/07/27 04:43:42;;;;;;;;;6.33;6.33;;;;;;;;4826896;29;8841;-92
2023/07/27 04:46:08;;;;;;;;;7.50;7.50;;;;;;;;4810424;29;8831;-93
2023/07/27 04:48:33;;;;;;;;;10.00;10.00;;;;;;;;4826414;29;8867;-93
2023/07/27 04:50:58;;;;;;;;;9.67;9.67;;;;;;;;4826824;29;8938;-93
2023/07/27 04:53:24;;;;;;;;;9.00;9.00;;;;;;;;4826846;29;8867;-93
2023/07/27 04:55:49;;;;;;;;;6.33;6.33;;;;;;;;4839060;29;8883;-93
2023/07/27 04:58:14;;;;;;;;;7.33;7.33;;;;;;;;4828241;29;8835;-92
2023/07/27 05:00:39;;;;;;;;;6.33;6.33;;;;;;;;4826595;29;8895;-93
2023/07/27 05:03:04;;;;;;;;;6.00;6.00;;;;;;;;4809986;29;8831;-93
2023/07/27 05:05:30;;;;;;;;;7.00;7.00;;;;;;;;4826524;29;8871;-93
2023/07/27 05:07:55;;;;;;;;;7.00;7.00;;;;;;;;4826721;29;8819;-93
2023/07/27 05:10:22;;;;;;;;;4.00;3.33;;;;;;;;4832173;29;8837;-93
2023/07/27 05:12:48;;;;;;;;;6.33;6.33;;;;;;;;4845171;29;9894;-93
2023/07/27 05:15:13;;;;;;;;;6.00;6.00;;;;;;;;4816139;29;8841;-93
2023/07/27 05:17:38;;;;;;;;;7.00;7.00;;;;;;;;4823481;29;8849;-93
2023/07/27 05:20:03;;;;;;;;;7.00;7.00;;;;;;;;4810499;29;8863;-93
2023/07/27 05:22:29;;;;;;;;;8.00;7.00;;;;;;;;4826667;29;8831;-93
2023/07/27 05:24:54;;;;;;;;;8.00;8.00;;;;;;;;4829394;29;8886;-93
2023/07/27 05:27:19;;;;;;;;;3.00;3.00;;;;;;;;4813168;29;8873;-93
2023/07/27 05:29:44;;;;;;;;;4.00;4.00;;;;;;;;4834341;29;9675;-93
2023/07/27 05:32:10;;;;;;;;;3.00;3.00;;;;;;;;4836554;29;8859;-92
2023/07/27 05:34:35;;;;;;;;;1.00;1.00;;;;;;;;4817786;29;8828;-93
2023/07/27 05:37:00;;;;;;;;;3.00;1.67;;;;;;;;4836880;29;9013;-92
2023/07/27 05:39:27;;;;;;;;;1.00;1.00;;;;;;;;4812694;29;8846;-92
2023/07/27 05:41:53;;;;;;;;;1.00;1.00;;;;;;;;4829370;29;8823;-93
2023/07/27 05:44:18;;;;;;;;;1.00;1.00;;;;;;;;4829301;29;8919;-92
2023/07/27 05:46:43;;;;;;;;;0.67;0.67;;;;;;;;4829395;29;8843;-92
2023/07/27 05:49:08;;;;;;;;;0.00;0.00;;;;;;;;4828850;29;8819;-93
2023/07/27 05:51:33;;;;;;;;;1.00;1.00;;;;;;;;4812833;29;8881;-92
2023/07/27 05:53:59;;;;;;;;;3.00;1.67;;;;;;;;4817340;29;8874;-92
2023/07/27 05:56:24;;;;;;;;;1.00;1.00;;;;;;;;4836665;29;8909;-92
2023/07/27 05:58:49;;;;;;;;;1.00;1.00;;;;;;;;4829980;29;8995;-92
2023/07/27 06:01:16;;;;;;;;;2.00;2.00;;;;;;;;4829077;29;8843;-92
2023/07/27 06:03:41;;;;;;;;;1.75;1.75;;;;;;;;4828755;29;8764;-92
2023/07/27 06:06:06;;;;;;;;;2.00;2.00;;;;;;;;4812713;29;8852;-92
2023/07/27 06:08:33;;;;;;;;;1.00;1.00;;;;;;;;4812363;29;8835;-92
2023/07/27 06:11:03;;;;;;;;;2.00;2.00;;;;;;;;4822760;29;8829;-91
2023/07/27 06:13:29;;;;;;;;;2.25;2.25;;;;;;;;4847409;29;9714;-91
2023/07/27 06:15:54;;;;;;;;;2.00;2.00;;;;;;;;4847334;29;8898;-91
2023/07/27 06:18:20;;;;;;;;;3.00;3.00;;;;;;;;4842432;29;8877;-91
2023/07/27 06:20:45;;;;;;;;;1.67;1.67;;;;;;;;4812187;29;8910;-92
2023/07/27 06:23:10;;;;;;;;;1.33;1.33;;;;;;;;4812122;29;9618;-92
2023/07/27 06:25:35;;;;;;;;;1.00;1.00;;;;;;;;4828606;29;8850;-91
2023/07/27 06:28:01;;;;;;;;;1.00;1.00;;;;;;;;4828591;29;8850;-92
2023/07/27 06:30:26;;;;;;;;;3.00;3.00;;;;;;;;4828533;29;8847;-91
2023/07/27 06:32:51;;;;;;;;;2.00;2.00;;;;;;;;4811940;29;8930;-91
2023/07/27 06:35:16;;;;;;;;;1.67;1.67;;;;;;;;4828093;29;8832;-92
2023/07/27 06:37:42;;;;;;;;;2.00;2.00;;;;;;;;4828536;29;8847;-91
2023/07/27 06:40:08;;;;;;;;;2.00;2.00;;;;;;;;4811888;29;8911;-91
2023/07/27 06:42:33;;;;;;;;;2.00;2.00;;;;;;;;4828427;29;8951;-91
2023/07/27 06:44:58;;;;;;;;;1.67;1.67;;;;;;;;4828614;29;8890;-91
2023/07/27 06:47:23;;;;;;;;;1.00;1.00;;;;;;;;4811534;29;9599;-91
2023/07/27 06:49:49;;;;;;;;;2.00;2.00;;;;;;;;4828434;29;8866;-91
2023/07/27 06:52:14;;;;;;;;;2.00;2.00;;;;;;;;4828197;29;9606;-91
2023/07/27 06:54:39;;;;;;;;;2.00;2.00;;;;;;;;4837229;29;8845;-91
2023/07/27 06:57:09;;;;;;;;;1.00;1.00;;;;;;;;4833798;29;8831;-91
2023/07/27 06:59:34;;;;;;;;;2.00;2.00;;;;;;;;4821063;29;8924;-91
2023/07/27 07:02:00;;;;;;;;;0.33;0.33;;;;;;;;4831030;29;8909;-91
2023/07/27 07:04:25;;;;;;;;;4.67;3.00;;;;;;;;4828061;29;8835;-91
2023/07/27 07:06:51;;;;;;;;;0.00;0.00;;;;;;;;4828158;29;8835;-91
2023/07/27 07:09:16;;;;;;;;;1.00;1.00;;;;;;;;4811681;29;8822;-91
2023/07/27 07:11:41;;;;;;;;;0.67;0.67;;;;;;;;4843962;29;8812;-91
2023/07/27 07:14:07;;;;;;;;;0.67;0.67;;;;;;;;4846440;29;8824;-92
2023/07/27 07:16:32;;;;;;;;;1.33;0.00;;;;;;;;4846362;29;8836;-91
2023/07/27 07:18:57;;;;;;;;;0.00;0.00;;;;;;;;4836379;29;8867;-91
2023/07/27 07:21:22;;;;;;;;;0.00;0.00;;;;;;;;4827947;29;8847;-91
2023/07/27 07:23:48;;;;;;;;;1.00;1.00;;;;;;;;4827699;29;8847;-91
2023/07/27 07:26:14;;;;;;;;;0.00;0.00;;;;;;;;4827768;29;8815;-91
2023/07/27 07:28:39;;;;;;;;;0.00;0.00;;;;;;;;4827979;29;8799;-92
2023/07/27 07:31:05;;;;;;;;;0.00;0.00;;;;;;;;4811610;29;8946;-91
2023/07/27 07:33:30;;;;;;;;;0.00;0.00;;;;;;;;4827593;29;8887;-91
2023/07/27 07:35:55;;;;;;;;;0.00;0.00;;;;;;;;4811205;29;8865;-92
2023/07/27 07:38:21;;;;;;;;;0.00;0.00;;;;;;;;4811378;29;9001;-91
2023/07/27 07:40:46;;;;;;;;;0.00;0.00;;;;;;;;4810954;29;8859;-91
2023/07/27 07:43:11;;;;;;;;;0.00;0.00;;;;;;;;4827672;29;8839;-91
2023/07/27 07:45:37;;;;;;;;;0.00;0.00;;;;;;;;4826652;29;8865;-91
2023/07/27 07:48:03;;;;;;;;;0.00;0.00;;;;;;;;4827360;29;8811;-91
2023/07/27 07:50:29;;;;;;;;;0.00;0.00;;;;;;;;4827693;29;8846;-91
2023/07/27 07:52:54;;;;;;;;;0.00;0.00;;;;;;;;4811258;29;8839;-92
2023/07/27 07:55:19;;;;;;;;;0.00;0.00;;;;;;;;4827359;29;8823;-91
2023/07/27 07:57:44;;;;;;;;;0.00;0.00;;;;;;;;4812718;29;8874;-91
2023/07/27 08:00:10;;;;;;;;;0.00;0.00;;;;;;;;4810951;29;8866;-91
2023/07/27 08:02:41;;;;;;;;;0.00;0.00;;;;;;;;4810781;29;8875;-91
2023/07/27 08:05:06;;;;;;;;;0.00;0.00;;;;;;;;4810843;29;8815;-92
2023/07/27 08:07:31;;;;;;;;;0.00;0.00;;;;;;;;4835914;29;8813;-91
2023/07/27 08:10:04;;;;;;;;;0.00;0.00;;;;;;;;4816902;29;8983;-91
2023/07/27 08:12:29;;;;;;;;;0.00;0.00;;;;;;;;4845567;29;8813;-92
2023/07/27 08:14:55;;;;;;;;;0.00;0.00;;;;;;;;4828937;29;8931;-91
2023/07/27 08:17:20;;;;;;;;;0.00;0.00;;;;;;;;4828621;29;8836;-91
2023/07/27 08:19:45;;;;;;;;;0.00;0.00;;;;;;;;4829795;29;8819;-91
2023/07/27 08:22:10;;;;;;;;;0.00;0.00;;;;;;;;4827000;29;8842;-91
2023/07/27 08:24:35;;;;;;;;;0.00;0.00;;;;;;;;4810441;29;8890;-92
2023/07/27 08:27:04;;;;;;;;;0.00;0.00;;;;;;;;4810669;29;8838;-92
2023/07/27 08:29:29;;;;;;;;;0.00;0.00;;;;;;;;4826931;29;8841;-92
2023/07/27 08:31:54;;;;;;;;;0.00;0.00;;;;;;;;4826989;29;8854;-92
2023/07/27 08:34:20;;;;;;;;;0.00;0.00;;;;;;;;4826782;29;8807;-92
2023/07/27 08:36:47;;;;;;;;;0.00;0.00;;;;;;;;4836425;29;8829;-92
2023/07/27 08:39:12;;;;;;;;;0.00;0.00;;;;;;;;4832742;29;8797;-92
2023/07/27 08:41:37;;;;;;;;;1.00;1.00;;;;;;;;4819374;29;8865;-92
2023/07/27 08:44:03;;;;;;;;;0.00;0.00;;;;;;;;4826885;29;8839;-92
2023/07/27 08:46:29;;;;;;;;;0.00;0.00;;;;;;;;4810466;29;8889;-92
2023/07/27 08:48:55;;;;;;;;;0.00;0.00;;;;;;;;4826343;29;8816;-92
2023/07/27 08:51:21;;;;;;;;;0.00;0.00;;;;;;;;4826836;29;8920;-92
2023/07/27 08:53:46;;;;;;;;;0.00;0.00;;;;;;;;4826435;29;11560;-92
2023/07/27 08:56:11;;;;;;;;;0.00;0.00;;;;;;;;4826883;29;8897;-92
2023/07/27 08:58:36;;;;;;;;;0.00;0.00;;;;;;;;4830776;29;8951;-92
2023/07/27 09:01:02;;;;;;;;;0.00;0.00;;;;;;;;4830082;29;8949;-93
2023/07/27 09:03:29;;;;;;;;;0.00;0.00;;;;;;;;4829527;29;8871;-93
2023/07/27 09:06:02;;;;;;;;;0.00;0.00;;;;;;;;4813484;29;8819;-93
2023/07/27 09:08:31;;;;;;;;;0.00;0.00;;;;;;;;4813202;29;8942;-93
2023/07/27 09:11:10;;;;;;;;;1.00;0.00;;;;;;;;4823376;29;8788;-93
2023/07/27 09:13:36;;;;;;;;;0.00;0.00;;;;;;;;4825782;29;8921;-93
2023/07/27 09:16:02;;;;;;;;;0.00;0.00;;;;;;;;4813246;29;9736;-93
2023/07/27 09:18:28;;;;;;;;;0.00;0.00;;;;;;;;4820319;29;8830;-93
2023/07/27 09:20:54;;;;;;;;;0.00;0.00;;;;;;;;4813165;29;8954;-93
2023/07/27 09:23:20;;;;;;;;;0.00;0.00;;;;;;;;4831238;29;8848;-93
2023/07/27 09:25:55;;;;;;;;;0.00;0.00;;;;;;;;4831267;29;8833;-93
2023/07/27 09:28:25;;;;;;;;;0.00;0.00;;;;;;;;4831388;29;8959;-92
2023/07/27 09:30:50;;;;;;;;;0.00;0.00;;;;;;;;4829796;29;8809;-94
2023/07/27 09:33:16;;;;;;;;;0.00;0.00;;;;;;;;4812737;29;9620;-93
2023/07/27 09:35:44;;;;;;;;;2.00;1.00;;;;;;;;4812826;29;8865;-93
2023/07/27 09:38:10;;;;;;;;;1.00;1.00;;;;;;;;4829628;29;8819;-92
2023/07/27 09:40:36;;;;;;;;;0.67;0.67;;;;;;;;4830700;29;8847;-93
2023/07/27 09:43:07;;;;;;;;;0.00;0.00;;;;;;;;4839985;29;8864;-93
2023/07/27 09:45:37;;;;;;;;;0.00;0.00;;;;;;;;4831842;29;8795;-93
2023/07/27 09:48:03;;;;;;;;;0.00;0.00;;;;;;;;4838245;29;8826;-93
2023/07/27 09:50:35;;;;;;;;;1.00;1.00;;;;;;;;4841287;29;8968;-93
2023/07/27 09:53:01;;;;;;;;;0.25;0.25;;;;;;;;4829378;29;8819;-93
2023/07/27 09:55:28;;;;;;;;;0.33;0.33;;;;;;;;4824731;29;8886;-93
2023/07/27 09:57:57;;;;;;;;;3.50;2.00;;;;;;;;4813713;29;8819;-94
2023/07/27 10:00:25;;;;;;;;;1.00;1.00;;;;;;;;4812488;29;8888;-93
2023/07/27 10:02:50;;;;;;;;;2.00;2.00;;;;;;;;4812382;29;8849;-93
2023/07/27 10:05:15;;;;;;;;;1.00;1.00;;;;;;;;4812504;29;8875;-93
2023/07/27 10:07:42;;;;;;;;;1.00;1.00;;;;;;;;4812560;29;8851;-93
2023/07/27 10:10:25;;;;;;;;;1.00;1.00;;;;;;;;4832464;29;8994;-93
2023/07/27 10:12:50;;;;;;;;;0.00;0.00;;;;;;;;4847164;29;9879;-93
2023/07/27 10:15:26;;;;;;;;;1.00;1.00;;;;;;;;4847490;29;8951;-93
2023/07/27 10:17:55;;;;;;;;;1.00;1.00;;;;;;;;4828778;29;9723;-92
2023/07/27 10:20:23;;;;;;;;;0.00;0.00;;;;;;;;4812301;29;8888;-93
2023/07/27 10:23:12;;;;;;;;;1.50;1.50;;;;;;;;4828710;29;8912;-93
2023/07/27 10:25:55;;;;;;;;;0.00;0.00;;;;;;;;4813564;29;8805;-93
2023/07/27 10:28:33;;;;;;;;;0.00;0.00;;;;;;;;4812307;29;8811;-93
2023/07/27 10:31:21;;;;;;;;;0.00;0.00;;;;;;;;4812087;29;8915;-93
2023/07/27 10:34:05;;;;;;;;;0.00;0.00;;;;;;;;4828416;29;9722;-93
2023/07/27 10:36:51;;;;;;;;;0.00;0.00;;;;;;;;4836757;29;8833;-93
2023/07/27 10:39:26;;;;;;;;;0.00;0.00;;;;;;;;4829996;29;8789;-93
2023/07/27 10:42:04;;;;;;;;;0.00;0.00;;;;;;;;4830065;29;8887;-93
2023/07/27 10:44:40;;;;;;;;;0.00;0.00;;;;;;;;4847045;29;8825;-93
2023/07/27 10:47:08;;;;;;;;;0.00;0.00;;;;;;;;4846504;29;8797;-93
2023/07/27 10:49:40;;;;;;;;;1.00;1.00;;;;;;;;4821308;29;8839;-92
2023/07/27 10:52:08;;;;;;;;;0.00;0.00;;;;;;;;4811729;29;8867;-92
2023/07/27 10:54:39;;;;;;;;;0.00;0.00;;;;;;;;4838309;29;8856;-93
2023/07/27 10:57:06;;;;;;;;;1.00;1.00;;;;;;;;4829966;29;8808;-93
2023/07/27 10:59:33;;;;;;;;;1.75;0.50;;;;;;;;4828313;29;8808;-93
2023/07/27 11:01:59;;;;;;;;;1.00;1.00;;;;;;;;4811253;29;8892;-92
2023/07/27 11:04:27;;;;;;;;;1.00;1.00;;;;;;;;4828261;29;9022;-92
2023/07/27 11:06:53;;;;;;;;;1.75;1.75;;;;;;;;4811619;29;8847;-93
2023/07/27 11:09:18;;;;;;;;;0.00;0.00;;;;;;;;4811409;29;8843;-92
2023/07/27 11:11:49;;;;;;;;;0.00;0.00;;;;;;;;4823927;29;8835;-92
2023/07/27 11:14:17;;;;;;;;;0.00;0.00;;;;;;;;4811587;29;8839;-93
2023/07/27 11:16:44;;;;;;;;;1.00;1.00;;;;;;;;4832571;29;8821;-92
2023/07/27 11:19:12;;;;;;;;;1.00;1.00;;;;;;;;4818161;29;8847;-93
2023/07/27 11:21:42;;;;;;;;;1.00;1.00;;;;;;;;4823383;29;8795;-93
2023/07/27 11:24:11;;;;;;;;;0.75;0.75;;;;;;;;4827638;29;8943;-93
2023/07/27 11:26:37;;;;;;;;;1.00;1.00;;;;;;;;4817571;29;8836;-93
2023/07/27 11:29:03;;;;;;;;;0.00;0.00;;;;;;;;4829549;29;8841;-93
2023/07/27 11:31:30;;;;;;;;;0.00;0.00;;;;;;;;4846264;29;8879;-93
2023/07/27 11:33:59;;;;;;;;;0.00;0.00;;;;;;;;4845841;29;8824;-92
2023/07/27 11:36:42;;;;;;;;;0.50;0.50;;;;;;;;4822952;29;9777;-93
2023/07/27 11:39:21;;;;;;;;;;;;;;;;;;;;;
2023/07/27 11:41:52;;;;;;;;;1.00;1.00;;;;;;;;4837029;29;35985;-93
2023/07/27 11:44:23;;;;;;;;;1.00;1.00;;;;;;;;4811924;29;8816;-93
2023/07/27 11:47:29;;;;;;;;;0.00;0.00;;;;;;;;4810871;29;8871;-92
2023/07/27 11:50:24;;;;;;;;;1.50;1.50;;;;;;;;4824594;29;8854;-93
2023/07/27 11:58:50;;;;;;;;;0.00;0.00;;;;;;;;4799818;29;8846;-93
2023/07/27 12:07:30;;;;;;;;;;;;;;;;;;;;;
2023/07/27 12:10:35;;;;;;;;;;;;;;;;;;;;;
2023/07/27 18:00:11;;;;;;;;;1.00;1.00;;;;;;;;4781074;29;9894;-93
2023/07/27 18:06:22;;;;;;;;;;;;;;;;;;;;;
2023/07/27 18:09:14;;;;;;;;;0.00;0.00;;;;;;;;4798476;29;37065;-93
2023/07/27 18:15:05;;;;;;;;;;;;;;;;;;;;;
2023/07/27 18:18:10;;;;;;;;;;;;;;;;;;;;;
2023/07/27 18:20:49;;;;;;;;;;;;;;;;;;;;;
2023/07/27 18:23:16;;;;;;;;;0.25;0.25;;;;;;;;4809441;29;36655;-93
2023/07/27 18:25:52;;;;;;;;;;;;;;;;;;;;;
2023/07/27 18:28:45;;;;;;;;;0.00;0.00;;;;;;;;4797884;29;36313;-93
2023/07/27 18:31:10;;;;;;;;;0.00;0.00;;;;;;;;4790350;29;8954;-94
2023/07/27 18:33:38;;;;;;;;;0.00;0.00;;;;;;;;4793866;29;8868;-93
2023/07/27 18:36:17;;;;;;;;;0.00;0.00;;;;;;;;4794105;29;8934;-93
2023/07/27 18:38:45;;;;;;;;;0.25;0.25;;;;;;;;4793933;29;8910;-93
2023/07/27 18:41:18;;;;;;;;;1.75;0.25;;;;;;;;4810234;29;8857;-94
2023/07/27 18:43:44;;;;;;;;;0.25;0.25;;;;;;;;4810235;29;8805;-93
2023/07/27 18:46:09;;;;;;;;;0.00;0.00;;;;;;;;4804138;29;8827;-93
2023/07/27 18:48:34;;;;;;;;;0.00;0.00;;;;;;;;4804045;29;8845;-93
2023/07/27 18:51:00;;;;;;;;;0.00;0.00;;;;;;;;4810477;29;8833;-92
2023/07/27 18:53:25;;;;;;;;;0.00;0.00;;;;;;;;4793879;29;8908;-92
2023/07/27 18:55:51;;;;;;;;;0.00;0.00;;;;;;;;4793696;29;8845;-92
2023/07/27 18:58:17;;;;;;;;;0.00;0.00;;;;;;;;4810194;29;8817;-92
2023/07/27 19:00:50;;;;;;;;;0.67;0.67;;;;;;;;4793686;29;8917;-92
2023/07/27 19:03:16;;;;;;;;;0.00;0.00;;;;;;;;4809904;29;8911;-92
2023/07/27 19:05:41;;;;;;;;;0.00;0.00;;;;;;;;4810130;29;8830;-92
2023/07/27 19:08:06;;;;;;;;;0.00;0.00;;;;;;;;4809991;29;9083;-92
2023/07/27 19:10:36;;;;;;;;;0.00;0.00;;;;;;;;4809946;29;8829;-92
2023/07/27 19:13:03;;;;;;;;;0.00;0.00;;;;;;;;4809828;29;8833;-92
2023/07/27 19:15:29;;;;;;;;;0.00;0.00;;;;;;;;4793717;29;9181;-92
2023/07/27 19:17:54;;;;;;;;;0.00;0.00;;;;;;;;4809507;29;8833;-92
2023/07/27 19:20:22;;;;;;;;;0.00;0.00;;;;;;;;4809834;29;8936;-92
2023/07/27 19:22:56;;;;;;;;;0.00;0.00;;;;;;;;4809742;29;8788;-92
2023/07/27 19:25:24;;;;;;;;;0.50;0.50;;;;;;;;4809682;29;8875;-92
2023/07/27 19:27:52;;;;;;;;;0.00;0.00;;;;;;;;4809696;29;8806;-92
2023/07/27 19:30:18;;;;;;;;;0.75;0.75;;;;;;;;4793265;29;8837;-92
2023/07/27 19:32:47;;;;;;;;;0.00;0.00;;;;;;;;4793120;29;8865;-92
2023/07/27 19:35:17;;;;;;;;;0.00;0.00;;;;;;;;4793350;29;9763;-92
2023/07/27 19:37:42;;;;;;;;;0.75;0.75;;;;;;;;4792811;29;8879;-92
2023/07/27 19:40:08;;;;;;;;;0.00;0.00;;;;;;;;4792956;29;8857;-92
2023/07/27 19:42:36;;;;;;;;;0.00;0.00;;;;;;;;4808309;29;8915;-92
2023/07/27 19:45:03;;;;;;;;;0.00;0.00;;;;;;;;4809510;29;8814;-92
2023/07/27 19:47:29;;;;;;;;;0.25;0.25;;;;;;;;4792770;29;8862;-93
2023/07/27 19:49:57;;;;;;;;;0.00;0.00;;;;;;;;4793042;29;8845;-92
2023/07/27 19:52:22;;;;;;;;;0.00;0.00;;;;;;;;4809221;29;8856;-92
2023/07/27 19:54:52;;;;;;;;;0.00;0.00;;;;;;;;4792998;29;8841;-92
2023/07/27 19:57:24;;;;;;;;;0.00;0.00;;;;;;;;4792734;29;8849;-92
2023/07/27 19:59:54;;;;;;;;;0.75;0.75;;;;;;;;4792843;29;8829;-92
2023/07/27 20:02:19;;;;;;;;;1.00;1.00;;;;;;;;4792585;29;9790;-92
2023/07/27 20:04:47;;;;;;;;;0.67;0.67;;;;;;;;4809070;29;8846;-92
2023/07/27 20:07:12;;;;;;;;;0.00;0.00;;;;;;;;4793110;29;8840;-92
2023/07/27 20:09:38;;;;;;;;;0.00;0.00;;;;;;;;4792626;29;8944;-93
2023/07/27 20:12:03;;;;;;;;;0.00;0.00;;;;;;;;4809265;29;8837;-93
2023/07/27 20:14:28;;;;;;;;;0.33;0.33;;;;;;;;4792722;29;8877;-92
2023/07/27 20:16:54;;;;;;;;;0.33;0.33;;;;;;;;4808760;29;8833;-92
2023/07/27 20:19:19;;;;;;;;;0.00;0.00;;;;;;;;4809064;29;8869;-92
2023/07/27 20:21:44;;;;;;;;;0.00;0.00;;;;;;;;4792758;29;8891;-93
2023/07/27 20:24:15;;;;;;;;;0.00;0.00;;;;;;;;4764127;29;795305;-92
2023/07/27 20:26:40;;;;;;;;;0.00;0.00;;;;;;;;4791318;29;44782;-92
2023/07/27 20:29:08;;;;;;;;;0.00;0.00;;;;;;;;4774008;29;29744;-92
2023/07/27 20:31:36;;;;;;;;;0.00;0.00;;;;;;;;4773829;29;29048;-92
2023/07/27 20:34:04;;;;;;;;;1.00;1.00;;;;;;;;4790480;29;28515;-92
2023/07/27 20:36:32;;;;;;;;;0.00;0.00;;;;;;;;4774314;29;28522;-93
2023/07/27 20:38:57;;;;;;;;;0.00;0.00;;;;;;;;4773413;29;38089;-93
2023/07/27 20:41:22;;;;;;;;;;;;;;;;;;4139954;29;19267631;-92
2023/07/27 20:43:51;;;;;;;;;0.00;0.00;;;;;;;;3158963;29;23277849;-93
2023/07/27 20:46:16;;;;;;;;;0.00;0.00;;;;;;;;4804570;29;27632;-92
2023/07/27 20:48:41;;;;;;;;;0.00;0.00;;;;;;;;4749301;29;849113;-92
2023/07/27 20:51:06;;;;;;;;;0.33;0.33;;;;;;;;4724667;29;1884675;-92
2023/07/27 20:54:37;;;;;;;;;;;;;;;;;;2655251;29;130453707;-92
2023/07/27 20:57:02;;;;;;;;;0.00;0.00;;;;;;;;4776814;29;45053;-93
2023/07/27 20:59:28;;;;;;;;;1.33;0.00;;;;;;;;4762453;29;45605;-92
2023/07/27 21:01:53;;;;;;;;;0.00;0.00;;;;;;;;4762049;29;45441;-93
2023/07/27 21:04:18;;;;;;;;;1.00;1.00;;;;;;;;4779057;29;45270;-93
2023/07/27 21:06:46;;;;;;;;;0.00;0.00;;;;;;;;4791174;29;45254;-93
2023/07/27 21:09:11;;;;;;;;;0.00;0.00;;;;;;;;4795251;29;8902;-93
2023/07/27 21:11:36;;;;;;;;;0.00;0.00;;;;;;;;4799475;29;9811;-93